Time;durP1;ratioP1;P1;durP2;ratioP2;P2;SDS_P1;SDS_P2;PMS_P1;PMS_P2;Temp;Humidity;BMP_temperature;BMP_pressure;BME280_temperature;BME280_humidity;BME280_pressure;Samples;Min_cycle;Max_cycle;Signal;HPM_P1;HPM_P2
2022/01/27 00:04:21;;;;;;;11.63;6.05;;;9.30;90.20;;;;;;5029097;28;20064;-75
2022/01/27 00:06:47;;;;;;;7.45;4.82;;;9.50;91.00;;;;;;5040891;28;20037;-78
2022/01/27 00:09:41;;;;;;;8.20;4.72;;;9.30;90.30;;;;;;5009348;28;20045;-76
2022/01/27 00:12:09;;;;;;;7.68;4.57;;;9.20;89.80;;;;;;5012757;28;20045;-77
2022/01/27 00:14:45;;;;;;;7.97;4.63;;;9.20;89.40;;;;;;5039776;28;20034;-71
2022/01/27 00:17:14;;;;;;;8.82;4.72;;;9.30;89.10;;;;;;5039689;28;20045;-73
2022/01/27 00:19:42;;;;;;;7.32;4.78;;;9.20;89.80;;;;;;5042471;28;20048;-72
2022/01/27 00:22:08;;;;;;;10.70;4.90;;;9.20;89.00;;;;;;5043545;28;21117;-77
2022/01/27 00:24:36;;;;;;;6.75;4.50;;;9.30;88.60;;;;;;5047218;28;20045;-72
2022/01/27 00:27:03;;;;;;;9.27;4.70;;;9.50;87.60;;;;;;5041956;28;20376;-75
2022/01/27 00:29:29;;;;;;;10.52;5.47;;;9.40;88.70;;;;;;5025298;28;20491;-72
2022/01/27 00:31:56;;;;;;;8.05;4.82;;;9.30;89.10;;;;;;5043925;28;20033;-71
2022/01/27 00:34:24;;;;;;;7.55;4.13;;;9.20;90.50;;;;;;5036759;28;20082;-73
2022/01/27 00:36:51;;;;;;;7.60;4.70;;;9.80;84.70;;;;;;5041389;28;20045;-77
2022/01/27 00:39:18;;;;;;;6.25;4.43;;;9.80;88.50;;;;;;5018751;28;20353;-71
2022/01/27 00:41:44;;;;;;;7.47;4.35;;;9.60;87.50;;;;;;5038491;28;20033;-76
2022/01/27 00:44:11;;;;;;;6.72;4.47;;;10.10;84.20;;;;;;5041273;28;20473;-72
2022/01/27 00:46:38;;;;;;;7.95;5.10;;;10.50;84.00;;;;;;5037803;28;20030;-71
2022/01/27 00:49:06;;;;;;;7.22;4.78;;;10.30;84.50;;;;;;5040307;28;20124;-77
2022/01/27 00:51:37;;;;;;;6.15;4.00;;;10.30;85.10;;;;;;5020696;28;20029;-73
2022/01/27 00:54:08;;;;;;;7.00;4.38;;;10.00;84.80;;;;;;5036787;28;20045;-76
2022/01/27 00:59:22;;;;;;;7.07;4.50;;;9.90;85.40;;;;;;5038987;28;20029;-71
2022/01/27 01:02:04;;;;;;;5.95;4.18;;;9.90;84.80;;;;;;5042602;28;20045;-77
2022/01/27 01:04:34;;;;;;;7.43;4.97;;;9.80;85.10;;;;;;5039914;28;20048;-74
2022/01/27 01:07:00;;;;;;;7.97;4.93;;;9.90;85.40;;;;;;5037326;28;20036;-74
2022/01/27 01:17:41;;;;;;;7.00;4.25;;;9.50;85.60;;;;;;5038828;28;20060;-74
2022/01/27 01:20:26;;;;;;;6.60;4.30;;;9.40;87.60;;;;;;5037876;28;20695;-71
2022/01/27 01:31:30;;;;;;;6.60;4.53;;;9.60;85.20;;;;;;5039340;28;20044;-72
2022/01/27 01:34:16;;;;;;;7.70;4.88;;;9.70;84.90;;;;;;5041425;28;20040;-76
2022/01/27 01:37:07;;;;;;;7.25;4.97;;;9.70;84.80;;;;;;5046420;28;20056;-77
2022/01/27 01:39:34;;;;;;;8.65;4.80;;;9.70;84.50;;;;;;5046232;28;20041;-73
2022/01/27 01:42:06;;;;;;;8.60;4.60;;;9.80;84.80;;;;;;5047586;28;20041;-72
2022/01/27 01:44:34;;;;;;;6.88;4.63;;;9.80;84.70;;;;;;5042033;28;20040;-77
2022/01/27 01:47:02;;;;;;;8.25;5.03;;;9.50;85.50;;;;;;5037047;28;20033;-73
2022/01/27 01:49:29;;;;;;;9.20;4.78;;;9.30;85.10;;;;;;5035191;28;20120;-72
2022/01/27 01:52:06;;;;;;;7.18;4.68;;;9.60;84.20;;;;;;5024351;28;20033;-77
2022/01/27 01:54:32;;;;;;;7.28;4.28;;;9.60;85.20;;;;;;5022379;28;20570;-71
2022/01/27 01:56:59;;;;;;;6.95;4.75;;;9.50;85.70;;;;;;5034432;28;20032;-76
2022/01/27 01:59:26;;;;;;;7.15;4.57;;;9.40;85.70;;;;;;5038241;28;20128;-72
2022/01/27 02:01:52;;;;;;;8.20;4.32;;;9.40;86.20;;;;;;5038727;28;20132;-77
2022/01/27 02:04:20;;;;;;;7.32;4.68;;;9.30;86.30;;;;;;5041980;28;20121;-73
2022/01/27 02:07:00;;;;;;;8.25;5.05;;;9.20;86.60;;;;;;5031268;28;20110;-73
2022/01/27 02:10:02;;;;;;;7.50;4.47;;;9.40;85.60;;;;;;5043853;28;20048;-72
2022/01/27 02:17:59;;;;;;;7.60;4.43;;;9.00;87.30;;;;;;5046264;28;20108;-72
2022/01/27 02:20:25;;;;;;;7.90;5.22;;;8.90;87.80;;;;;;5044260;28;20489;-73
2022/01/27 02:22:52;;;;;;;8.10;5.13;;;9.00;86.80;;;;;;5040918;28;20039;-71
2022/01/27 02:25:17;;;;;;;7.07;5.03;;;9.00;87.50;;;;;;5007859;28;20033;-74
2022/01/27 02:27:47;;;;;;;7.03;5.18;;;8.90;87.60;;;;;;5053150;28;21950;-77
2022/01/27 02:30:13;;;;;;;7.45;4.60;;;9.20;86.20;;;;;;5038540;28;20069;-77
2022/01/27 02:32:39;;;;;;;9.40;4.80;;;9.10;88.20;;;;;;5041167;28;20103;-74
2022/01/27 02:35:07;;;;;;;7.72;4.93;;;9.20;87.40;;;;;;5047146;28;20051;-72
2022/01/27 02:37:37;;;;;;;9.55;4.80;;;9.70;86.00;;;;;;5024661;28;20044;-72
2022/01/27 02:40:04;;;;;;;12.40;5.15;;;9.80;85.90;;;;;;5020413;28;20040;-72
2022/01/27 02:42:36;;;;;;;8.93;5.40;;;9.90;85.20;;;;;;5045985;28;20025;-75
2022/01/27 02:45:17;;;;;;;11.63;6.40;;;10.00;86.00;;;;;;5038097;28;20037;-71
2022/01/27 02:47:43;;;;;;;11.00;5.97;;;10.20;85.60;;;;;;5035022;28;20057;-73
2022/01/27 02:50:10;;;;;;;9.82;6.00;;;10.30;86.00;;;;;;5047611;28;20047;-71
2022/01/27 02:52:36;;;;;;;11.30;6.28;;;10.40;85.00;;;;;;5024092;28;20037;-76
2022/01/27 02:55:02;;;;;;;10.88;5.78;;;10.30;85.80;;;;;;5029684;28;20073;-72
2022/01/27 02:57:28;;;;;;;7.88;5.55;;;10.20;86.10;;;;;;5029408;28;20045;-71
2022/01/27 02:59:56;;;;;;;9.70;6.53;;;10.10;86.50;;;;;;5040552;28;20045;-76
2022/01/27 03:02:24;;;;;;;8.27;5.65;;;10.10;86.40;;;;;;5040068;28;20101;-72
2022/01/27 03:04:51;;;;;;;9.65;5.53;;;10.00;86.30;;;;;;5042461;28;20637;-72
2022/01/27 03:07:18;;;;;;;9.25;5.25;;;10.10;85.90;;;;;;5040744;28;20469;-75
2022/01/27 03:09:43;;;;;;;8.63;5.38;;;10.20;85.70;;;;;;5041822;28;20465;-72
2022/01/27 03:12:12;;;;;;;8.50;4.95;;;10.10;86.20;;;;;;5040041;28;20094;-72
2022/01/27 03:14:41;;;;;;;11.45;5.57;;;10.00;86.30;;;;;;5042991;28;20037;-73
2022/01/27 03:17:08;;;;;;;8.00;4.78;;;10.00;86.40;;;;;;5041251;28;20040;-71
2022/01/27 03:19:37;;;;;;;7.82;5.30;;;9.90;86.70;;;;;;5040801;28;20107;-73
2022/01/27 03:22:04;;;;;;;7.47;5.32;;;10.00;85.90;;;;;;5026983;28;20040;-72
2022/01/27 03:24:31;;;;;;;8.18;6.00;;;10.00;85.70;;;;;;5040742;28;20060;-71
2022/01/27 03:26:58;;;;;;;9.57;5.65;;;10.00;85.90;;;;;;5039330;28;20067;-73
2022/01/27 03:29:25;;;;;;;7.05;5.03;;;10.00;86.40;;;;;;5052561;28;20068;-71
2022/01/27 03:31:53;;;;;;;9.95;6.30;;;9.70;87.80;;;;;;5044403;28;20067;-71
2022/01/27 03:34:20;;;;;;;8.57;5.50;;;9.90;88.90;;;;;;5042174;28;20037;-71
2022/01/27 03:36:50;;;;;;;9.65;6.07;;;10.00;86.50;;;;;;5040989;28;20033;-76
2022/01/27 03:39:22;;;;;;;8.23;5.60;;;10.10;86.80;;;;;;5037482;28;20053;-73
2022/01/27 03:41:50;;;;;;;9.27;5.95;;;10.10;87.40;;;;;;5043238;28;20501;-75
2022/01/27 03:44:18;;;;;;;8.90;6.18;;;9.90;87.50;;;;;;5035212;28;20473;-72
2022/01/27 03:46:45;;;;;;;10.45;6.47;;;9.80;89.10;;;;;;5041999;28;20092;-71
2022/01/27 03:49:12;;;;;;;9.02;6.15;;;9.50;89.20;;;;;;5042122;28;20074;-73
2022/01/27 03:51:40;;;;;;;11.30;6.28;;;9.50;88.50;;;;;;5037444;28;20048;-71
2022/01/27 03:54:06;;;;;;;12.13;6.40;;;9.50;88.50;;;;;;5033880;28;20119;-77
2022/01/27 03:56:33;;;;;;;11.93;6.80;;;9.80;88.40;;;;;;5035270;28;20051;-72
2022/01/27 03:59:01;;;;;;;11.88;6.78;;;10.00;88.10;;;;;;5036988;28;20089;-74
2022/01/27 04:01:28;;;;;;;11.48;6.13;;;10.20;87.40;;;;;;5010681;28;20061;-70
2022/01/27 04:04:00;;;;;;;13.05;7.07;;;10.50;86.90;;;;;;5044438;28;20039;-72
2022/01/27 04:06:36;;;;;;;10.90;6.38;;;10.50;86.80;;;;;;5040141;28;20083;-76
2022/01/27 04:09:05;;;;;;;9.38;6.60;;;10.30;86.90;;;;;;5037916;28;20048;-72
2022/01/27 04:11:33;;;;;;;9.85;6.53;;;10.30;87.40;;;;;;5024635;28;20038;-71
2022/01/27 04:14:00;;;;;;;8.55;6.18;;;10.30;87.30;;;;;;5035041;28;20047;-77
2022/01/27 04:16:26;;;;;;;9.07;6.20;;;10.10;88.30;;;;;;5042952;28;20040;-71
2022/01/27 04:18:52;;;;;;;9.85;6.30;;;9.90;88.50;;;;;;5034044;28;20456;-73
2022/01/27 04:21:20;;;;;;;8.80;6.30;;;9.90;88.30;;;;;;5043393;28;20037;-74
2022/01/27 04:23:46;;;;;;;8.90;6.40;;;9.80;88.50;;;;;;5040119;28;20033;-74
2022/01/27 04:26:16;;;;;;;10.55;6.85;;;9.60;89.10;;;;;;5041909;28;20046;-78
2022/01/27 04:28:43;;;;;;;8.57;5.95;;;9.80;90.00;;;;;;5041506;28;20384;-71
2022/01/27 04:31:10;;;;;;;9.57;6.88;;;9.60;90.20;;;;;;5037616;28;20107;-73
2022/01/27 04:33:38;;;;;;;10.07;7.07;;;9.50;90.40;;;;;;5034202;28;20037;-71
2022/01/27 04:36:21;;;;;;;8.80;6.70;;;9.40;90.50;;;;;;5041651;28;20033;-77
2022/01/27 04:38:54;;;;;;;10.52;6.80;;;9.40;90.40;;;;;;5050775;28;20542;-71
2022/01/27 04:41:30;;;;;;;10.75;6.97;;;9.40;90.40;;;;;;5036457;28;20984;-72
2022/01/27 04:44:13;;;;;;;9.68;6.38;;;9.30;90.70;;;;;;5038367;28;20033;-75
2022/01/27 04:49:10;;;;;;;10.65;6.65;;;9.40;91.00;;;;;;5037802;28;20051;-77
2022/01/27 04:51:37;;;;;;;13.52;6.85;;;9.20;91.00;;;;;;5041504;28;20983;-72
2022/01/27 04:54:15;;;;;;;12.00;7.57;;;9.10;91.20;;;;;;5027507;28;20135;-75
2022/01/27 04:56:42;;;;;;;9.93;6.55;;;9.00;91.70;;;;;;5016255;28;20068;-76
2022/01/27 04:59:24;;;;;;;11.82;6.60;;;8.80;91.40;;;;;;5039913;28;20389;-71
2022/01/27 05:02:00;;;;;;;9.97;7.03;;;8.60;91.40;;;;;;5038407;28;20034;-71
2022/01/27 05:04:32;;;;;;;9.48;6.35;;;8.50;91.70;;;;;;5045456;28;20064;-77
2022/01/27 05:06:58;;;;;;;13.10;7.53;;;8.40;92.20;;;;;;5043966;28;20041;-74
2022/01/27 05:09:25;;;;;;;14.13;7.22;;;8.40;92.70;;;;;;5056331;28;20045;-76
2022/01/27 05:12:05;;;;;;;12.23;7.72;;;8.30;92.90;;;;;;5046945;28;20464;-72
2022/01/27 05:14:31;;;;;;;10.73;7.25;;;8.30;93.00;;;;;;5043425;28;20558;-76
2022/01/27 05:16:57;;;;;;;11.48;7.32;;;8.30;93.00;;;;;;5041429;28;20041;-73
2022/01/27 05:19:23;;;;;;;9.48;6.93;;;8.30;92.70;;;;;;5042410;28;20049;-72
2022/01/27 05:21:52;;;;;;;10.30;6.78;;;8.30;92.50;;;;;;5046327;28;20038;-75
2022/01/27 05:24:19;;;;;;;10.10;6.93;;;8.30;92.80;;;;;;5029669;28;20052;-71
2022/01/27 05:26:45;;;;;;;12.98;7.13;;;8.30;93.10;;;;;;5039516;28;20039;-72
2022/01/27 05:29:11;;;;;;;12.00;6.78;;;8.30;92.80;;;;;;5027359;28;20563;-71
2022/01/27 05:31:38;;;;;;;8.98;6.05;;;8.30;92.40;;;;;;5053526;28;20040;-76
2022/01/27 05:34:06;;;;;;;9.07;5.95;;;8.30;91.90;;;;;;5035967;28;20067;-73
2022/01/27 05:36:34;;;;;;;10.45;6.70;;;8.40;91.60;;;;;;5052441;28;20037;-76
2022/01/27 05:39:01;;;;;;;12.35;6.18;;;8.40;92.30;;;;;;5042997;28;20856;-75
2022/01/27 05:41:27;;;;;;;11.60;6.57;;;8.50;92.20;;;;;;5041512;28;20033;-74
2022/01/27 05:43:54;;;;;;;10.32;6.85;;;8.50;91.70;;;;;;5042008;28;20037;-72
2022/01/27 05:46:20;;;;;;;13.98;7.00;;;8.40;92.00;;;;;;5052828;28;20040;-76
2022/01/27 05:48:47;;;;;;;15.93;7.53;;;8.40;91.80;;;;;;5045902;28;20053;-73
2022/01/27 05:51:15;;;;;;;9.50;6.35;;;8.50;91.60;;;;;;5054932;28;20033;-72
2022/01/27 05:53:42;;;;;;;11.18;7.20;;;8.50;91.70;;;;;;5042956;28;20074;-71
2022/01/27 05:56:08;;;;;;;12.07;7.13;;;8.60;91.50;;;;;;5042283;28;20083;-76
2022/01/27 05:58:36;;;;;;;15.48;7.50;;;8.60;91.80;;;;;;5042424;28;20037;-73
2022/01/27 06:01:03;;;;;;;12.23;7.03;;;8.60;92.40;;;;;;5036901;28;20042;-74
2022/01/27 06:03:31;;;;;;;13.85;7.60;;;8.50;91.90;;;;;;5042395;28;20040;-73
2022/01/27 06:05:58;;;;;;;13.88;7.22;;;8.40;91.90;;;;;;5032663;28;20068;-77
2022/01/27 06:08:28;;;;;;;12.18;7.07;;;8.40;92.20;;;;;;5041801;28;20403;-71
2022/01/27 06:10:54;;;;;;;11.93;7.22;;;8.30;92.40;;;;;;5046086;28;20121;-72
2022/01/27 06:13:22;;;;;;;13.73;7.50;;;8.50;92.30;;;;;;5045679;28;20467;-76
2022/01/27 06:15:48;;;;;;;12.13;7.85;;;8.60;92.20;;;;;;5045830;28;20033;-72
2022/01/27 06:18:15;;;;;;;14.90;8.35;;;8.90;92.20;;;;;;5036074;28;20385;-75
2022/01/27 06:20:44;;;;;;;12.30;8.32;;;8.90;92.50;;;;;;5046989;28;20293;-72
2022/01/27 06:23:13;;;;;;;14.00;8.38;;;9.00;92.10;;;;;;5041842;28;20496;-71
2022/01/27 06:25:40;;;;;;;12.20;8.02;;;8.90;92.00;;;;;;5042899;28;20461;-74
2022/01/27 06:28:06;;;;;;;11.90;7.72;;;8.70;92.30;;;;;;5035130;28;20045;-74
2022/01/27 06:30:34;;;;;;;11.73;8.05;;;8.60;92.90;;;;;;5040827;28;20498;-75
2022/01/27 06:33:06;;;;;;;15.70;8.80;;;8.40;92.70;;;;;;5031730;28;20660;-76
2022/01/27 06:35:33;;;;;;;13.40;8.73;;;8.30;92.90;;;;;;5024565;28;20040;-73
2022/01/27 06:38:00;;;;;;;15.25;8.35;;;8.20;92.80;;;;;;5037730;28;20106;-74
2022/01/27 06:40:28;;;;;;;13.57;7.90;;;8.30;92.90;;;;;;5041791;28;20102;-71
2022/01/27 06:42:54;;;;;;;12.63;7.15;;;8.30;93.10;;;;;;5023559;28;20435;-74
2022/01/27 06:45:21;;;;;;;14.90;8.60;;;8.30;92.90;;;;;;5036861;28;20460;-72
2022/01/27 06:47:49;;;;;;;11.63;7.45;;;8.30;92.90;;;;;;5046349;28;20086;-74
2022/01/27 06:50:16;;;;;;;11.18;7.43;;;8.30;93.00;;;;;;5041466;28;20396;-72
2022/01/27 06:52:42;;;;;;;16.88;8.02;;;8.20;92.90;;;;;;5039603;28;20121;-75
2022/01/27 06:55:13;;;;;;;18.63;7.75;;;8.30;93.30;;;;;;5042569;28;20041;-73
2022/01/27 06:57:39;;;;;;;11.02;6.80;;;8.20;93.20;;;;;;5040915;28;20041;-74
2022/01/27 07:00:08;;;;;;;16.27;7.43;;;8.30;92.80;;;;;;5035422;28;20033;-76
2022/01/27 07:02:34;;;;;;;12.82;7.00;;;8.20;93.20;;;;;;5042693;28;20041;-76
2022/01/27 07:05:01;;;;;;;13.30;7.45;;;8.40;92.10;;;;;;5045486;28;20037;-72
2022/01/27 07:07:27;;;;;;;14.10;6.75;;;8.40;92.40;;;;;;5034899;28;20102;-73
2022/01/27 07:09:53;;;;;;;11.57;6.97;;;8.40;91.90;;;;;;5037045;28;20041;-77
2022/01/27 07:12:19;;;;;;;15.25;7.47;;;8.60;92.10;;;;;;5040463;28;20047;-73
2022/01/27 07:14:45;;;;;;;16.55;7.13;;;8.70;91.80;;;;;;5039904;28;20044;-76
2022/01/27 07:17:13;;;;;;;14.48;7.82;;;8.60;92.00;;;;;;5040878;28;20044;-77
2022/01/27 07:19:40;;;;;;;11.95;7.57;;;8.60;92.10;;;;;;5039529;28;20040;-75
2022/01/27 07:22:06;;;;;;;13.93;7.93;;;8.50;92.50;;;;;;5052313;28;20041;-74
2022/01/27 07:24:34;;;;;;;14.45;7.82;;;8.50;92.60;;;;;;5043992;28;20072;-72
2022/01/27 07:27:01;;;;;;;12.00;7.10;;;8.70;91.80;;;;;;5040037;28;20120;-73
2022/01/27 07:29:28;;;;;;;10.15;7.00;;;8.90;91.50;;;;;;5044371;28;20091;-76
2022/01/27 07:31:54;;;;;;;16.25;7.38;;;8.90;91.60;;;;;;5038089;28;20117;-75
2022/01/27 07:34:20;;;;;;;20.95;8.05;;;8.80;92.00;;;;;;5035783;28;20500;-72
2022/01/27 07:36:47;;;;;;;14.05;8.90;;;8.80;92.20;;;;;;5038792;28;20606;-73
2022/01/27 07:39:15;;;;;;;14.38;8.02;;;8.70;92.40;;;;;;5044338;28;20056;-73
2022/01/27 07:41:45;;;;;;;13.70;8.00;;;8.70;92.30;;;;;;5036385;28;20112;-76
2022/01/27 07:44:11;;;;;;;13.55;8.32;;;8.70;92.10;;;;;;5037396;28;20067;-75
2022/01/27 07:46:37;;;;;;;14.95;8.45;;;9.00;91.70;;;;;;5039915;28;20401;-76
2022/01/27 07:49:03;;;;;;;11.93;7.50;;;9.20;91.30;;;;;;5045532;28;20048;-72
2022/01/27 07:51:30;;;;;;;19.55;8.52;;;9.30;91.30;;;;;;5036373;28;20493;-77
2022/01/27 07:53:59;;;;;;;21.70;8.80;;;9.50;91.60;;;;;;5019150;28;20517;-72
2022/01/27 07:56:27;;;;;;;19.73;8.93;;;9.80;91.50;;;;;;5041081;28;20037;-71
2022/01/27 07:58:54;;;;;;;19.08;8.50;;;9.90;91.10;;;;;;5040388;28;20037;-75
2022/01/27 08:01:20;;;;;;;15.80;8.45;;;10.00;90.50;;;;;;5038592;28;20038;-73
2022/01/27 08:03:46;;;;;;;18.15;9.13;;;10.00;90.70;;;;;;5040814;28;20037;-76
2022/01/27 08:06:13;;;;;;;42.42;12.18;;;9.90;91.40;;;;;;5043439;28;20037;-73
2022/01/27 08:08:39;;;;;;;166.00;22.10;;;9.80;91.50;;;;;;5041609;28;20051;-72
2022/01/27 08:11:06;;;;;;;119.82;19.17;;;9.80;91.60;;;;;;5039129;28;20393;-76
2022/01/27 08:13:34;;;;;;;29.27;10.38;;;9.70;91.50;;;;;;5041961;28;20402;-76
2022/01/27 08:16:01;;;;;;;24.17;9.90;;;9.70;91.40;;;;;;5044443;28;20388;-77
2022/01/27 08:18:27;;;;;;;21.73;9.40;;;9.80;91.30;;;;;;5053027;28;20504;-73
2022/01/27 08:20:53;;;;;;;19.70;10.45;;;9.70;91.60;;;;;;5037204;28;20128;-74
2022/01/27 08:23:20;;;;;;;18.05;10.27;;;9.80;91.40;;;;;;5043633;28;20184;-78
2022/01/27 08:25:59;;;;;;;17.33;10.50;;;9.80;91.50;;;;;;5043261;28;20047;-73
2022/01/27 08:28:31;;;;;;;17.88;9.10;;;9.80;91.60;;;;;;5038696;28;20381;-75
2022/01/27 08:30:59;;;;;;;16.17;9.05;;;10.00;91.40;;;;;;5043550;28;20038;-72
2022/01/27 08:33:29;;;;;;;18.02;9.40;;;10.80;90.50;;;;;;5042065;28;20053;-76
2022/01/27 08:35:58;;;;;;;15.38;9.25;;;13.00;89.20;;;;;;5043623;28;20037;-72
2022/01/27 08:38:28;;;;;;;20.30;10.15;;;14.90;86.70;;;;;;5039578;28;20568;-72
2022/01/27 08:40:55;;;;;;;25.77;11.25;;;16.40;83.40;;;;;;5045346;28;20056;-71
2022/01/27 08:43:22;;;;;;;21.52;10.80;;;17.30;81.90;;;;;;5044655;28;20041;-76
2022/01/27 08:45:50;;;;;;;23.80;12.15;;;18.40;81.10;;;;;;5044810;28;20048;-73
2022/01/27 08:48:18;;;;;;;26.10;11.98;;;19.10;78.80;;;;;;5046933;28;20041;-75
2022/01/27 08:50:58;;;;;;;22.80;11.85;;;20.00;77.10;;;;;;5027790;28;20480;-77
2022/01/27 08:53:25;;;;;;;23.05;11.63;;;20.60;75.50;;;;;;5030519;28;20044;-72
2022/01/27 08:55:51;;;;;;;18.45;10.57;;;21.30;73.10;;;;;;5036528;28;20396;-74
2022/01/27 08:58:17;;;;;;;20.92;10.57;;;21.50;71.50;;;;;;5032709;28;20045;-77
2022/01/27 09:00:44;;;;;;;19.55;11.10;;;21.30;71.20;;;;;;5030163;28;20591;-73
2022/01/27 09:03:10;;;;;;;20.50;11.07;;;21.30;71.20;;;;;;5034576;28;20037;-73
2022/01/27 09:05:40;;;;;;;21.05;12.88;;;20.40;71.60;;;;;;5027125;28;20040;-77
2022/01/27 09:08:07;;;;;;;25.35;12.25;;;19.40;75.00;;;;;;5037260;28;20094;-77
2022/01/27 09:10:33;;;;;;;25.17;10.38;;;19.30;75.70;;;;;;5030161;28;20037;-73
2022/01/27 09:13:01;;;;;;;19.27;11.05;;;19.70;73.20;;;;;;5036686;28;20182;-78
2022/01/27 09:15:28;;;;;;;15.55;9.00;;;20.30;73.20;;;;;;5030892;28;20116;-76
2022/01/27 09:17:59;;;;;;;17.15;8.32;;;20.20;71.80;;;;;;5027481;28;20037;-78
2022/01/27 09:20:25;;;;;;;12.10;7.35;;;19.60;70.30;;;;;;5030984;28;20042;-73
2022/01/27 09:22:58;;;;;;;14.07;8.35;;;18.80;70.40;;;;;;5031760;28;20045;-72
2022/01/27 09:25:30;;;;;;;;;;;18.40;70.50;;;;;;5028508;28;20332;-74
2022/01/27 09:27:58;;;;;;;11.15;6.97;;;18.00;70.70;;;;;;5032920;28;20427;-78
2022/01/27 09:30:25;;;;;;;11.75;6.68;;;17.40;70.70;;;;;;5024939;28;20060;-72
2022/01/27 09:32:52;;;;;;;12.38;7.10;;;16.90;71.30;;;;;;5042879;28;20563;-78
2022/01/27 09:35:19;;;;;;;10.73;6.85;;;16.50;71.50;;;;;;5041870;28;20034;-72
2022/01/27 09:37:46;;;;;;;14.07;7.75;;;16.10;71.80;;;;;;5043830;28;20159;-75
2022/01/27 09:40:12;;;;;;;12.85;7.38;;;15.90;72.30;;;;;;5026590;28;20048;-71
2022/01/27 09:42:41;;;;;;;15.15;8.25;;;15.80;72.90;;;;;;5025882;28;20164;-72
2022/01/27 09:45:09;;;;;;;14.82;8.85;;;15.60;73.10;;;;;;5029719;28;20365;-72
2022/01/27 09:47:41;;;;;;;13.70;8.63;;;15.60;72.90;;;;;;5028688;28;20043;-77
2022/01/27 09:52:37;;;;;;;11.73;8.20;;;16.30;72.50;;;;;;5030822;28;19944;-74
2022/01/27 09:55:04;;;;;;;12.45;8.38;;;16.70;72.00;;;;;;5046278;28;20056;-77
2022/01/27 09:57:31;;;;;;;10.70;8.10;;;17.10;71.40;;;;;;5046308;28;20125;-75
2022/01/27 09:59:58;;;;;;;11.95;7.57;;;17.50;71.50;;;;;;5045457;28;20025;-76
2022/01/27 10:02:28;;;;;;;12.38;8.07;;;17.60;71.20;;;;;;5022168;28;20048;-73
2022/01/27 10:04:59;;;;;;;15.50;8.77;;;18.00;70.80;;;;;;5031696;28;20041;-73
2022/01/27 10:07:28;;;;;;;14.10;9.13;;;18.00;70.20;;;;;;5031224;28;20056;-77
2022/01/27 10:09:59;;;;;;;13.95;9.00;;;18.20;70.40;;;;;;5032264;28;20126;-78
2022/01/27 10:12:33;;;;;;;13.95;8.77;;;18.40;70.40;;;;;;5030903;28;20049;-73
2022/01/27 10:15:12;;;;;;;11.93;8.35;;;18.60;70.10;;;;;;5046453;28;20040;-72
2022/01/27 10:17:58;;;;;;;15.40;8.70;;;18.70;70.00;;;;;;5044385;28;20041;-74
2022/01/27 10:20:24;;;;;;;13.10;8.93;;;18.90;69.80;;;;;;5031435;28;20163;-79
2022/01/27 10:23:19;;;;;;;13.02;9.32;;;18.90;69.90;;;;;;5026879;28;20071;-73
2022/01/27 10:25:53;;;;;;;12.68;8.52;;;18.90;69.50;;;;;;5029097;28;20039;-78
2022/01/27 10:28:48;;;;;;;14.25;9.05;;;18.90;69.70;;;;;;5023650;28;20037;-78
2022/01/27 10:31:20;;;;;;;14.77;8.57;;;19.10;68.90;;;;;;5036809;28;20516;-77
2022/01/27 10:33:56;;;;;;;12.88;7.80;;;19.30;69.10;;;;;;5038965;28;20099;-72
2022/01/27 10:36:26;;;;;;;9.80;7.60;;;19.30;68.70;;;;;;5033806;28;20094;-78
2022/01/27 10:39:20;;;;;;;12.15;7.25;;;19.60;67.70;;;;;;5036625;28;20497;-78
2022/01/27 10:42:06;;;;;;;14.18;7.30;;;19.60;67.40;;;;;;5023539;28;20418;-74
2022/01/27 10:44:47;;;;;;;9.60;7.50;;;20.00;67.10;;;;;;5027281;28;20029;-74
2022/01/27 10:47:19;;;;;;;14.03;7.40;;;20.00;67.10;;;;;;5032246;28;20069;-79
2022/01/27 10:49:56;;;;;;;12.10;7.53;;;20.00;68.00;;;;;;5025076;28;20069;-72
2022/01/27 10:52:43;;;;;;;11.77;7.90;;;20.20;68.20;;;;;;5030549;28;20036;-73
2022/01/27 10:55:19;;;;;;;12.65;9.30;;;20.30;68.40;;;;;;5023290;28;20090;-73
2022/01/27 10:57:50;;;;;;;13.65;9.73;;;20.40;68.80;;;;;;5024679;28;20045;-78
2022/01/27 11:00:19;;;;;;;13.30;10.00;;;20.40;68.60;;;;;;5038780;28;20116;-74
2022/01/27 11:02:56;;;;;;;14.98;9.88;;;20.50;69.10;;;;;;5032710;28;20037;-72
2022/01/27 11:05:27;;;;;;;14.45;10.70;;;20.50;69.10;;;;;;5020622;28;20037;-75
2022/01/27 11:07:54;;;;;;;15.00;10.50;;;20.50;69.20;;;;;;5021795;28;20053;-78
2022/01/27 11:10:20;;;;;;;18.33;10.93;;;20.60;69.10;;;;;;5034149;28;20083;-73
2022/01/27 11:12:50;;;;;;;17.70;11.13;;;20.70;68.90;;;;;;5034216;28;20349;-79
2022/01/27 11:15:19;;;;;;;18.45;11.52;;;20.80;69.50;;;;;;5033486;28;20071;-80
2022/01/27 11:17:47;;;;;;;13.70;11.23;;;20.90;69.70;;;;;;5026889;28;20029;-78
2022/01/27 11:23:00;;;;;;;21.23;11.02;;;21.00;70.80;;;;;;5035599;28;20488;-74
2022/01/27 11:28:06;;;;;;;19.08;11.38;;;21.50;72.30;;;;;;5031357;28;20045;-73
2022/01/27 11:30:58;;;;;;;18.33;11.00;;;21.20;72.50;;;;;;5029867;28;20374;-73
2022/01/27 11:33:36;;;;;;;12.13;9.95;;;21.50;73.00;;;;;;5026808;28;20037;-73
2022/01/27 11:36:18;;;;;;;14.70;9.93;;;21.50;73.20;;;;;;5030495;28;20051;-78
2022/01/27 11:38:46;;;;;;;13.07;9.60;;;21.60;73.60;;;;;;5037267;28;20033;-75
2022/01/27 11:41:44;;;;;;;15.63;10.73;;;21.70;73.90;;;;;;5036565;28;20029;-72
2022/01/27 11:44:39;;;;;;;14.93;9.38;;;21.70;73.80;;;;;;5015831;28;20087;-78
2022/01/27 11:47:13;;;;;;;14.18;8.95;;;21.90;73.50;;;;;;5023750;28;20041;-74
2022/01/27 11:50:00;;;;;;;13.15;8.65;;;22.20;72.40;;;;;;5026221;28;20045;-72
2022/01/27 11:52:29;;;;;;;12.52;9.38;;;22.60;71.90;;;;;;5023625;28;20106;-73
2022/01/27 11:54:57;;;;;;;13.98;9.68;;;22.30;72.10;;;;;;5012504;28;20037;-73
2022/01/27 11:57:48;;;;;;;13.80;9.40;;;22.50;72.50;;;;;;5012160;28;20038;-74
2022/01/27 12:00:26;;;;;;;20.95;10.40;;;22.70;72.30;;;;;;5030832;28;20091;-77
2022/01/27 12:03:13;;;;;;;17.10;10.50;;;22.60;73.60;;;;;;5028021;28;20041;-78
2022/01/27 12:05:46;;;;;;;22.65;12.07;;;22.70;74.40;;;;;;5026856;28;20037;-80
2022/01/27 12:08:16;;;;;;;19.45;11.73;;;23.00;74.80;;;;;;5030086;28;20048;-77
2022/01/27 12:10:52;;;;;;;18.50;10.65;;;23.40;74.60;;;;;;5027231;28;20042;-78
2022/01/27 12:13:40;;;;;;;14.35;10.80;;;23.40;74.00;;;;;;5033690;28;20851;-72
2022/01/27 12:19:45;;;;;;;12.73;10.20;;;22.60;72.80;;;;;;5025472;28;20045;-73
2022/01/27 12:22:14;;;;;;;17.60;11.18;;;23.30;72.80;;;;;;4956058;28;20034;-73
2022/01/27 12:24:57;;;;;;;18.88;11.52;;;23.90;72.00;;;;;;4964252;28;20088;-74
2022/01/27 12:27:28;;;;;;;23.15;11.85;;;24.10;72.60;;;;;;5009948;28;20098;-72
2022/01/27 12:29:59;;;;;;;21.30;11.40;;;24.30;72.60;;;;;;5015452;28;20045;-77
2022/01/27 12:32:27;;;;;;;28.15;11.70;;;24.30;75.30;;;;;;5022988;28;20037;-75
2022/01/27 12:35:05;;;;;;;17.90;10.65;;;24.40;76.30;;;;;;5040465;28;20043;-77
2022/01/27 12:37:34;;;;;;;15.45;10.32;;;24.50;77.00;;;;;;5017293;28;20041;-76
2022/01/27 12:40:17;;;;;;;16.08;9.98;;;24.60;78.00;;;;;;5017931;28;20048;-77
2022/01/27 12:43:00;;;;;;;17.63;10.85;;;24.70;77.90;;;;;;5026424;28;20077;-75
2022/01/27 12:45:37;;;;;;;16.13;9.73;;;25.00;77.60;;;;;;5030761;28;20166;-76
2022/01/27 12:48:12;;;;;;;14.45;8.82;;;25.30;77.60;;;;;;5020980;28;20144;-75
2022/01/27 12:50:38;;;;;;;13.43;8.73;;;24.50;77.50;;;;;;5020916;28;20030;-77
2022/01/27 12:53:11;;;;;;;16.40;9.35;;;24.20;77.40;;;;;;5012805;28;20584;-80
2022/01/27 12:55:40;;;;;;;15.50;9.10;;;24.70;78.00;;;;;;5032270;28;20029;-79
2022/01/27 12:58:12;;;;;;;14.30;9.65;;;24.90;77.10;;;;;;5030610;28;21898;-75
2022/01/27 13:00:39;;;;;;;13.18;9.00;;;25.30;77.10;;;;;;5040499;28;20060;-74
2022/01/27 13:03:06;;;;;;;13.68;9.23;;;25.10;76.60;;;;;;5035044;28;20041;-77
2022/01/27 13:05:47;;;;;;;12.20;8.88;;;25.00;77.10;;;;;;5040457;28;20554;-75
2022/01/27 13:08:15;;;;;;;13.25;8.95;;;25.00;77.90;;;;;;5041072;28;20041;-78
2022/01/27 13:10:53;;;;;;;12.43;9.32;;;25.00;77.10;;;;;;5046817;28;20049;-78
2022/01/27 13:13:33;;;;;;;10.77;7.93;;;25.20;77.10;;;;;;5058171;28;20802;-75
2022/01/27 13:16:03;;;;;;;12.38;8.32;;;24.80;78.10;;;;;;5051782;28;20067;-79
2022/01/27 13:18:39;;;;;;;12.88;8.38;;;24.20;80.80;;;;;;5041475;28;20037;-74
2022/01/27 13:21:24;;;;;;;13.13;8.38;;;24.40;80.80;;;;;;5048518;28;20377;-78
2022/01/27 13:24:18;;;;;;;13.80;8.25;;;25.00;80.00;;;;;;5043084;28;20033;-74
2022/01/27 13:26:46;;;;;;;14.00;8.15;;;24.80;80.00;;;;;;5026272;28;20032;-78
2022/01/27 13:29:19;;;;;;;13.32;8.60;;;24.70;80.00;;;;;;5045038;28;20049;-75
2022/01/27 13:31:46;;;;;;;10.60;8.00;;;25.20;80.10;;;;;;5043100;28;20495;-74
2022/01/27 13:34:12;;;;;;;14.57;8.05;;;25.60;79.50;;;;;;5043524;28;20037;-76
2022/01/27 13:36:39;;;;;;;12.88;8.68;;;25.80;79.40;;;;;;5030815;28;20040;-73
2022/01/27 13:41:39;;;;;;;12.23;8.48;;;24.70;80.60;;;;;;5044043;28;20416;-76
2022/01/27 13:44:11;;;;;;;10.15;8.25;;;25.10;80.50;;;;;;5039710;28;20040;-74